Historyczne dane pomiarowe

Dodano dane terminowe – wersja testowa.

Dane z okresu 1951-2019

Wersja bazy: 1.34 [2019-03-16, lista zmian], aktualizacja planowana na 2019-04-15

Dane meteo z obszaru Polski uzyskane na podstawie danych udostępnionych przez Instytut Meteorologii i Gospodarki Wodnej – Państwowy Instytut Badawczy.

 

Wybierz Datę:    

       

TemperaturaWilgotnośćZachmurzenieWiatrCiśnienieWidzialnośćZjawiska
 Data    tng td wb rh cc ccl cl cm ch dir g1 g2 mslp ppp      
1999-07-07 00:00:00 19.2--- 17.5 18.190wxwxwxwx0wx--1013.5 989.4 0.0---wx
1999-07-07 01:00:00 19.5--- 18.0 18.591wxwxwx1wx--1013.7 989.7----wx
1999-07-07 02:00:00 19.4--- 17.7 18.390wxwxwx2wx--1014.5 990.4----wx
1999-07-07 03:00:00 19.2--- 18.0 18.493wxwxwx1wx--1014.8 990.7----wx
1999-07-07 04:00:00 19.6--- 17.9 18.590wxwxwx1wx--1015.2 991.1----wx
1999-07-07 05:00:00 20.4--- 18.1 18.987wxwxwxwx3wx--1015.4 991.4----wx
1999-07-07 06:00:00 21.4--- 18.4 19.483wxwxwxwx5wx--1015.3 991.4 0.0---wx
1999-07-07 07:00:00 21.1--- 17.3 18.679wxwxwxwx3wx--1015.6 991.6----wx
1999-07-07 08:00:00 21.7--- 17.9 19.279wxwxwxwx2wx--1016.1 992.2----wx
1999-07-07 09:00:00 21.6--- 18.6 19.683wxwxwxwx1wx--1016.7 992.8----wx
1999-07-07 10:00:00 21.4--- 18.4 19.483wxwxwxwx1wx--1017.0 993.0----wx
1999-07-07 11:00:00 21.5--- 18.3 19.482wxwxwxwx1wx--1017.4 993.4----wx
1999-07-07 12:00:00 20.6--- 17.7 18.783wxwxwxwx2wx--1017.3 993.3 0.0---wxw1
1999-07-07 13:00:00 19.6--- 18.2 18.792wxwxwxwx3wx--1017.8 993.7----wx
1999-07-07 14:00:00 19.6--- 18.1 18.691wxwxwxwx2wx--1018.1 994.0----wx
1999-07-07 15:00:00 19.4--- 18.2 18.693wxwxwxwx1wx--1017.5 993.4----wxw1
1999-07-07 16:00:00 19.4--- 17.9 18.491wxwxwxwx0wx--1018.4 994.2----wx
1999-07-07 17:00:00 18.8--- 17.7 18.193wxwxwxwx3wx--1018.0 993.8----wx
1999-07-07 18:00:00 18.3--- 17.4 17.794wxwxwxwx4wx--1018.5 994.2 1.8---wxw1
1999-07-07 19:00:00 17.8--- 16.9 17.294wxwxwxwx4wx--1019.1 994.8----wx
1999-07-07 20:00:00 17.5--- 16.6 16.994wxwxwxwx5wx--1018.7 994.4----wx
1999-07-07 21:00:00 17.2--- 16.4 16.795wxwxwxwx5wx--1019.0 994.6----wx
1999-07-07 22:00:00 16.9--- 16.1 16.495wxwxwxwx5wx--1019.3 994.9----wx
1999-07-07 23:00:00 16.7--- 16.1 16.396wxwxwxwx5wx--1019.0 994.6----wx

 

Źródłem pochodzenia danych jest Instytut Meteorologii i Gospodarki Wodnej – Państwowy Instytut Badawczy. Dane Instytutu Meteorologii i Gospodarki Wodnej – Państwowego Instytutu Badawczego zostały przetworzone.

Dane źródłowe można odnaleźć na stronie https://dane.imgw.pl